Latest Weather Observations for Wattamolla

IDN60801

Issued at 1:43 am EST Saturday 15 June 2024 (issued every 10 minutes, with the page automatically refreshed every 10 minutes)

About weather observations | Map of weather stations | Latest weather observations for NSW | Other Formats
Station Details ID: 066208 Name: WATTAMOLLA AWS Lat: -34.14 Lon: 151.12 Height: 44.0 m
Data from the previous 72 hours. | See also: Recent months at Wattamolla
Date/Time
EST
Temp
°C
App
Temp
°C
Dew
Point
°C
Rel
Hum
%
Delta-T
°C
Wind Press
QNH
hPa
Press
MSL
hPa
Rain since
9am
mm
Dir  Spd
km/h
Gust
km/h
Spd
kts
Gust
kts
15/01:30am - - - - - S 22 28 12 15 - - -
15/01:00am - - - - - SSW 22 39 12 21 - - -
15/12:30am - - - - - SSE 15 19 8 10 - - -
15/12:00am - - - - - SE 26 37 14 20 - - -
 
Date/Time
EST
Temp
°C
App
Temp
°C
Dew
Point
°C
Rel
Hum
%
Delta-T
°C
Wind Press
QNH
hPa
Press
MSL
hPa
Rain since
9am
mm
Dir  Spd
km/h
Gust
km/h
Spd
kts
Gust
kts
14/11:30pm - - - - - SSE 32 43 17 23 - - -
14/11:00pm - - - - - SSE 19 33 10 18 - - -
14/10:30pm - - - - - W 9 11 5 6 - - -
14/10:00pm - - - - - N 11 17 6 9 - - -
14/09:30pm - - - - - SW 11 19 6 10 - - -
14/09:00pm - - - - - W 6 11 3 6 - - -
14/08:30pm - - - - - NNW 9 13 5 7 - - -
14/08:00pm - - - - - NNW 15 19 8 10 - - -
14/07:30pm - - - - - NNW 13 19 7 10 - - -
14/07:00pm - - - - - NE 13 24 7 13 - - -
14/06:30pm - - - - - NW 15 19 8 10 - - -
14/06:00pm - - - - - S 28 44 15 24 - - -
14/05:37pm - - - - - S 32 61 17 33 - - -
14/05:30pm - - - - - S 28 39 15 21 - - -
14/05:13pm - - - - - S 33 52 18 28 - - -
14/05:00pm - - - - - S 37 50 20 27 - - -
14/04:30pm - - - - - S 44 50 24 27 - - -
14/04:00pm - - - - - S 46 56 25 30 - - -
14/03:30pm - - - - - S 39 48 21 26 - - -
14/03:00pm - - - - - S 30 43 16 23 - - -
14/02:30pm - - - - - S 39 44 21 24 - - -
14/02:00pm - - - - - S 33 43 18 23 - - -
14/01:30pm - - - - - S 43 50 23 27 - - -
14/01:00pm - - - - - S 39 50 21 27 - - -
14/12:30pm - - - - - S 41 50 22 27 - - -
14/12:00pm - - - - - S 41 48 22 26 - - -
14/11:30am - - - - - S 41 48 22 26 - - -
14/11:00am - - - - - S 37 50 20 27 - - -
14/10:30am - - - - - S 37 44 20 24 - - -
14/10:00am - - - - - S 41 50 22 27 - - -
14/09:30am - - - - - S 37 46 20 25 - - -
14/09:00am - - - - - S 39 48 21 26 - - -
14/08:30am - - - - - S 39 46 21 25 - - -
14/08:00am - - - - - S 41 48 22 26 - - -
14/07:30am - - - - - S 43 52 23 28 - - -
14/07:06am - - - - - S 37 56 20 30 - - -
14/07:00am - - - - - S 43 56 23 30 - - -
14/06:30am - - - - - S 39 48 21 26 - - -
14/06:00am - - - - - S 35 44 19 24 - - -
14/05:30am - - - - - S 32 41 17 22 - - -
14/05:00am - - - - - S 22 37 12 20 - - -
14/04:30am - - - - - S 20 33 11 18 - - -
14/04:00am - - - - - S 30 46 16 25 - - -
14/03:30am - - - - - S 26 41 14 22 - - -
14/03:00am - - - - - S 33 46 18 25 - - -
14/02:30am - - - - - S 39 48 21 26 - - -
14/02:00am - - - - - S 35 44 19 24 - - -
14/01:30am - - - - - S 30 37 16 20 - - -
14/01:00am - - - - - S 33 39 18 21 - - -
14/12:30am - - - - - S 32 43 17 23 - - -
14/12:25am - - - - - S 32 43 17 23 - - -
14/12:00am - - - - - SW 15 22 8 12 - - -
 
Date/Time
EST
Temp
°C
App
Temp
°C
Dew
Point
°C
Rel
Hum
%
Delta-T
°C
Wind Press
QNH
hPa
Press
MSL
hPa
Rain since
9am
mm
Dir  Spd
km/h
Gust
km/h
Spd
kts
Gust
kts
13/11:30pm - - - - - S 20 30 11 16 - - -
13/11:00pm - - - - - S 22 33 12 18 - - -
13/10:30pm - - - - - S 30 43 16 23 - - -
13/10:00pm - - - - - S 35 43 19 23 - - -
13/09:30pm - - - - - S 33 39 18 21 - - -
13/09:00pm - - - - - S 28 41 15 22 - - -
13/08:30pm - - - - - WSW 17 22 9 12 - - -
13/08:00pm - - - - - W 19 20 10 11 - - -
13/07:30pm - - - - - W 19 24 10 13 - - -
13/07:00pm - - - - - W 15 19 8 10 - - -
13/06:30pm - - - - - W 17 19 9 10 - - -
13/06:00pm - - - - - W 17 22 9 12 - - -
13/05:30pm - - - - - W 17 20 9 11 - - -
13/05:00pm - - - - - W 15 19 8 10 - - -
13/04:30pm - - - - - SW 19 39 10 21 - - -
13/04:00pm - - - - - S 24 35 13 19 - - -
13/03:30pm - - - - - S 28 41 15 22 - - -
13/03:00pm - - - - - S 32 41 17 22 - - -
13/02:30pm - - - - - S 32 41 17 22 - - -
13/02:00pm - - - - - S 37 46 20 25 - - -
13/01:30pm - - - - - S 32 39 17 21 - - -
13/01:00pm - - - - - S 32 44 17 24 - - -
13/12:30pm - - - - - S 24 37 13 20 - - -
13/12:00pm - - - - - S 35 46 19 25 - - -
13/11:30am - - - - - S 32 46 17 25 - - -
13/11:00am - - - - - S 28 41 15 22 - - -
13/10:30am - - - - - SSW 24 37 13 20 - - -
13/10:00am - - - - - SW 17 28 9 15 - - -
13/09:30am - - - - - SSW 20 32 11 17 - - -
13/09:04am - - - - - S 28 48 15 26 - - -
13/09:00am - - - - - S 28 41 15 22 - - -
13/08:45am - - - - - S 32 50 17 27 - - -
13/08:30am - - - - - S 35 50 19 27 - - -
13/08:20am - - - - - S 33 48 18 26 - - -
13/08:00am - - - - - SW 19 30 10 16 - - -
13/07:30am - - - - - WNW 26 33 14 18 - - -
13/07:00am - - - - - SSW 24 43 13 23 - - -
13/06:30am - - - - - S 33 59 18 32 - - -
13/06:00am - - - - - SSW 32 56 17 30 - - -
13/05:31am - - - - - S 43 61 23 33 - - -
13/05:30am - - - - - S 44 61 24 33 - - -
13/05:20am - - - - - S 37 56 20 30 - - -
13/05:16am - - - - - S 33 50 18 27 - - -
13/05:00am - - - - - SW 17 39 9 21 - - -
13/04:30am - - - - - WSW 17 26 9 14 - - -
13/04:01am - - - - - S 33 52 18 28 - - -
13/04:00am - - - - - S 35 52 19 28 - - -
13/03:43am - - - - - S 35 54 19 29 - - -
13/03:30am - - - - - S 41 56 22 30 - - -
13/03:01am - - - - - S 37 59 20 32 - - -
13/03:00am - - - - - S 39 54 21 29 - - -
13/02:41am - - - - - SSW 32 50 17 27 - - -
13/02:30am - - - - - S 32 46 17 25 - - -
13/02:04am - - - - - S 41 59 22 32 - - -
13/02:00am - - - - - S 43 59 23 32 - - -
13/01:30am - - - - - S 33 52 18 28 - - -
13/01:00am - - - - - SSW 32 52 17 28 - - -
13/12:30am - - - - - SSW 32 56 17 30 - - -
13/12:19am - - - - - W 20 48 11 26 - - -
13/12:00am - - - - - WSW 20 33 11 18 - - -
 
Date/Time
EST
Temp
°C
App
Temp
°C
Dew
Point
°C
Rel
Hum
%
Delta-T
°C
Wind Press
QNH
hPa
Press
MSL
hPa
Rain since
9am
mm
Dir  Spd
km/h
Gust
km/h
Spd
kts
Gust
kts
12/11:30pm - - - - - WSW 22 30 12 16 - - -
12/11:00pm - - - - - W 20 30 11 16 - - -
12/10:30pm - - - - - S 26 44 14 24 - - -
12/10:08pm - - - - - S 33 56 18 30 - - -
12/10:00pm - - - - - S 35 52 19 28 - - -
12/09:51pm - - - - - S 30 48 16 26 - - -
12/09:30pm - - - - - S 28 44 15 24 - - -
12/09:00pm - - - - - S 30 52 16 28 - - -
12/08:55pm - - - - - S 28 48 15 26 - - -
12/08:30pm - - - - - WSW 22 33 12 18 - - -
12/08:00pm - - - - - SW 20 41 11 22 - - -
12/07:38pm - - - - - S 33 52 18 28 - - -
12/07:30pm - - - - - S 39 56 21 30 - - -
12/07:01pm - - - - - S 30 52 16 28 - - -
12/07:00pm - - - - - S 30 41 16 22 - - -
12/06:34pm - - - - - S 26 46 14 25 - - -
12/06:30pm - - - - - SSW 26 57 14 31 - - -
12/06:24pm - - - - - S 37 57 20 31 - - -
12/06:22pm - - - - - S 37 57 20 31 - - -
12/06:17pm - - - - - SSW 30 52 16 28 - - -
12/06:00pm - - - - - WSW 20 32 11 17 - - -
12/05:30pm - - - - - WSW 20 26 11 14 - - -
12/05:00pm - - - - - SW 17 26 9 14 - - -
12/04:30pm - - - - - SSW 15 28 8 15 - - -
12/04:00pm - - - - - SSW 13 22 7 12 - - -
12/03:30pm - - - - - SSW 15 28 8 15 - - -
12/03:00pm - - - - - SW 19 28 10 15 - - -
12/02:30pm - - - - - SSW 28 48 15 26 - - -
12/02:13pm - - - - - S 52 72 28 39 - - -
12/02:00pm - - - - - S 61 76 33 41 - - -
12/01:30pm - - - - - S 72 87 39 47 - - -
12/01:23pm - - - - - S 76 95 41 51 - - -
12/01:16pm - - - - - S 65 95 35 51 - - -
12/01:09pm - - - - - SW 32 83 17 45 - - -
12/01:00pm - - - - - WSW 26 56 14 30 - - -
12/12:30pm - - - - - SW 33 57 18 31 - - -
12/12:13pm - - - - - WSW 35 56 19 30 - - -
12/12:09pm - - - - - WSW 33 56 18 30 - - -
12/12:02pm - - - - - SW 28 48 15 26 - - -
12/12:00pm - - - - - WSW 28 48 15 26 - - -
12/11:30am - - - - - W 33 56 18 30 - - -
12/11:00am - - - - - W 28 48 15 26 - - -
12/10:33am - - - - - W 26 56 14 30 - - -
12/10:30am - - - - - W 20 41 11 22 - - -
12/10:00am - - - - - WSW 20 37 11 20 - - -
12/09:30am - - - - - SSW 9 13 5 7 - - -
12/09:00am - - - - - SW 9 13 5 7 - - -
12/08:30am - - - - - WSW 11 22 6 12 - - -
12/08:00am - - - - - WNW 15 20 8 11 - - -
12/07:30am - - - - - WNW 13 26 7 14 - - -
12/07:00am - - - - - WNW 19 30 10 16 - - -
12/06:30am - - - - - WNW 17 24 9 13 - - -
12/06:00am - - - - - NW 17 19 9 10 - - -
12/05:30am - - - - - NW 13 17 7 9 - - -
12/05:00am - - - - - NW 13 15 7 8 - - -
12/04:30am - - - - - NW 13 17 7 9 - - -
12/04:00am - - - - - NW 13 15 7 8 - - -
12/03:30am - - - - - NW 15 19 8 10 - - -
12/03:00am - - - - - NNW 13 17 7 9 - - -
12/02:30am - - - - - NW 13 17 7 9 - - -
12/02:00am - - - - - WNW 17 30 9 16 - - -

Other formats

Comma delimited format used in spreadsheet applications
http://www.bom.gov.au/fwo/IDN60801/IDN60801.95752.axf

JavaScript Object Notation format (JSON) in row-major order
http://www.bom.gov.au/fwo/IDN60801/IDN60801.95752.json

Data quality

Most of these data are generated automatically and are frequently updated. Quality checks on data are not normally performed. It is possible for incorrect values to appear. Refer to information at About Latest Weather Observations and please check the disclaimer before using these data.